Time;durP1;ratioP1;P1;durP2;ratioP2;P2;SDS_P1;SDS_P2;PMS_P1;PMS_P2;Temp;Humidity;BMP_temperature;BMP_pressure;BME280_temperature;BME280_humidity;BME280_pressure;Samples;Min_cycle;Max_cycle;Signal;HPM_P1;HPM_P2
2023/12/14 00:01:17;;;;;;;5.68;3.17;;;33.40;97.90;;;;;;5040159;28;20067;-66
2023/12/14 00:03:44;;;;;;;4.70;2.83;;;33.50;98.00;;;;;;5045114;28;20658;-76
2023/12/14 00:06:13;;;;;;;5.68;2.80;;;33.90;97.60;;;;;;5040857;28;20090;-73
2023/12/14 00:08:41;;;;;;;7.68;3.40;;;34.10;97.90;;;;;;5043677;28;20055;-72
2023/12/14 00:11:09;;;;;;;6.97;3.10;;;34.50;97.90;;;;;;5046576;28;20085;-63
2023/12/14 00:13:37;;;;;;;2.63;2.42;;;34.80;97.30;;;;;;5048873;28;20036;-68
2023/12/14 00:16:04;;;;;;;5.30;3.30;;;35.20;95.90;;;;;;5045324;28;20574;-65
2023/12/14 00:18:32;;;;;;;5.18;2.50;;;35.40;96.20;;;;;;5046310;28;20023;-67
2023/12/14 00:20:59;;;;;;;4.13;2.63;;;35.70;95.80;;;;;;5039509;28;20059;-73
2023/12/14 00:23:26;;;;;;;3.90;2.80;;;35.90;94.40;;;;;;5041335;28;20020;-66
2023/12/14 00:25:53;;;;;;;6.20;3.10;;;35.60;94.30;;;;;;5039812;28;20053;-63
2023/12/14 00:28:20;;;;;;;5.07;2.80;;;35.60;94.30;;;;;;5043725;28;20021;-66
2023/12/14 00:30:47;;;;;;;5.75;2.63;;;35.80;95.30;;;;;;5041940;28;20045;-67
2023/12/14 00:33:15;;;;;;;6.22;3.00;;;36.30;95.00;;;;;;5040092;28;20037;-64
2023/12/14 00:35:42;;;;;;;4.88;2.80;;;36.60;94.50;;;;;;5046195;28;20036;-67
2023/12/14 00:38:09;;;;;;;3.67;2.22;;;36.80;94.80;;;;;;5046221;28;20104;-66
2023/12/14 00:40:36;;;;;;;5.82;2.78;;;37.10;94.40;;;;;;5041856;28;20091;-66
2023/12/14 00:43:03;;;;;;;6.28;2.95;;;37.50;94.50;;;;;;5046376;28;20367;-64
2023/12/14 00:45:30;;;;;;;5.30;2.83;;;37.60;92.90;;;;;;5036318;28;20021;-64
2023/12/14 00:47:57;;;;;;;4.03;2.90;;;37.70;92.70;;;;;;5048620;28;20483;-64
2023/12/14 00:50:24;;;;;;;4.38;2.78;;;37.80;93.20;;;;;;5035593;28;20021;-67
2023/12/14 00:52:51;;;;;;;6.50;2.95;;;37.90;92.90;;;;;;5047930;28;20573;-64
2023/12/14 00:55:19;;;;;;;6.13;3.17;;;38.00;93.10;;;;;;5041987;28;20116;-64
2023/12/14 00:57:46;;;;;;;4.57;2.47;;;38.30;94.00;;;;;;5043258;28;20024;-64
2023/12/14 01:00:13;;;;;;;3.40;2.50;;;38.30;92.80;;;;;;5044158;28;20029;-76
2023/12/14 01:02:40;;;;;;;5.30;2.63;;;38.30;92.30;;;;;;5043448;28;20507;-64
2023/12/14 01:05:08;;;;;;;3.83;2.30;;;38.10;90.70;;;;;;5043400;28;20063;-68
2023/12/14 01:07:35;;;;;;;3.40;2.00;;;38.00;91.20;;;;;;5048972;28;20518;-74
2023/12/14 01:10:03;;;;;;;2.63;2.00;;;38.00;90.10;;;;;;5041866;28;20071;-65
2023/12/14 01:12:30;;;;;;;3.63;1.63;;;38.20;90.60;;;;;;5043386;28;20029;-65
2023/12/14 01:14:58;;;;;;;4.75;2.40;;;38.30;85.80;;;;;;5043014;28;20441;-68
2023/12/14 01:17:25;;;;;;;3.33;2.00;;;38.30;86.20;;;;;;5041694;28;20052;-74
2023/12/14 01:19:52;;;;;;;4.78;2.05;;;38.10;83.20;;;;;;5050058;28;20032;-64
2023/12/14 01:22:19;;;;;;;3.13;1.77;;;38.00;83.70;;;;;;5040795;28;20044;-73
2023/12/14 01:24:46;;;;;;;2.78;1.60;;;37.90;83.00;;;;;;5044331;28;20411;-66
2023/12/14 01:27:14;;;;;;;2.55;1.52;;;37.90;81.70;;;;;;5039445;28;20025;-66
2023/12/14 01:29:41;;;;;;;3.80;1.38;;;38.10;79.90;;;;;;5037426;28;20032;-63
2023/12/14 01:32:08;;;;;;;3.13;1.58;;;38.10;80.00;;;;;;5044761;28;20047;-66
2023/12/14 01:34:35;;;;;;;3.65;1.33;;;38.40;80.90;;;;;;5044286;28;20033;-64
2023/12/14 01:37:02;;;;;;;2.35;1.60;;;38.90;81.30;;;;;;5041408;28;20056;-72
2023/12/14 01:39:29;;;;;;;5.13;1.90;;;38.90;76.80;;;;;;5043754;28;20023;-67
2023/12/14 01:41:56;;;;;;;5.18;2.17;;;38.80;76.80;;;;;;5043777;28;20545;-66
2023/12/14 01:44:24;;;;;;;2.42;1.70;;;38.80;76.60;;;;;;5040038;28;20020;-66
2023/12/14 01:46:51;;;;;;;2.35;1.30;;;39.00;75.60;;;;;;5037684;28;20069;-67
2023/12/14 01:49:18;;;;;;;4.30;1.40;;;39.20;75.40;;;;;;5040860;28;20057;-73
2023/12/14 01:51:45;;;;;;;2.80;1.30;;;39.10;72.70;;;;;;5031471;28;20032;-63
2023/12/14 01:54:12;;;;;;;2.63;1.40;;;39.10;72.40;;;;;;5036233;28;20074;-66
2023/12/14 01:56:40;;;;;;;2.55;1.45;;;39.50;72.20;;;;;;5042646;28;20090;-66
2023/12/14 01:59:07;;;;;;;4.30;1.20;;;39.90;73.20;;;;;;5042253;28;20110;-63
2023/12/14 02:01:43;;;;;;;4.40;1.10;;;39.30;69.80;;;;;;5042623;28;20052;-73
2023/12/14 02:04:11;;;;;;;1.52;0.90;;;39.40;71.70;;;;;;5041231;28;20108;-64
2023/12/14 02:06:39;;;;;;;2.65;1.60;;;39.70;71.30;;;;;;5037712;28;20033;-72
2023/12/14 02:09:06;;;;;;;2.17;1.42;;;39.90;69.20;;;;;;5046759;28;20028;-63
2023/12/14 02:11:33;;;;;;;1.83;1.10;;;39.70;69.60;;;;;;5047857;28;20087;-64
2023/12/14 02:14:09;;;;;;;2.70;1.00;;;39.90;68.20;;;;;;5041764;28;20396;-64
2023/12/14 02:16:38;;;;;;;5.00;0.98;;;39.60;66.00;;;;;;5048875;28;20828;-63
2023/12/14 02:19:05;;;;;;;3.35;1.30;;;39.10;66.40;;;;;;4692998;28;10000082;-66
2023/12/14 02:21:32;;;;;;;2.10;1.30;;;39.20;67.10;;;;;;5037911;28;20055;-69
2023/12/14 02:24:00;;;;;;;4.82;1.42;;;39.20;65.90;;;;;;5044226;28;20025;-73
2023/12/14 02:26:27;;;;;;;3.85;1.50;;;38.70;65.30;;;;;;5039980;28;20029;-68
2023/12/14 02:28:54;;;;;;;4.72;1.27;;;38.10;66.00;;;;;;5040384;28;20049;-75
2023/12/14 02:31:21;;;;;;;3.30;1.10;;;38.50;67.20;;;;;;5040657;28;20047;-67
2023/12/14 02:33:48;;;;;;;2.58;1.20;;;39.10;67.30;;;;;;5034535;28;20049;-65
2023/12/14 02:36:15;;;;;;;1.42;0.95;;;39.10;66.30;;;;;;5035378;28;20432;-77
2023/12/14 02:38:42;;;;;;;3.00;1.02;;;39.40;67.30;;;;;;5041263;28;20055;-70
2023/12/14 02:41:10;;;;;;;3.55;1.27;;;38.90;66.70;;;;;;5038149;28;20060;-73
2023/12/14 02:43:38;;;;;;;2.85;1.27;;;38.90;67.90;;;;;;5039429;28;20778;-65
2023/12/14 02:46:05;;;;;;;3.40;1.23;;;38.90;66.30;;;;;;5040894;28;20549;-65
2023/12/14 02:48:32;;;;;;;7.88;1.80;;;39.10;67.20;;;;;;5033313;28;20113;-72
2023/12/14 02:51:00;;;;;;;6.82;1.95;;;38.60;67.40;;;;;;5039509;28;20032;-69
2023/12/14 02:53:27;;;;;;;4.32;1.50;;;38.70;68.40;;;;;;5039895;28;20025;-64
2023/12/14 02:55:55;;;;;;;4.50;1.65;;;38.80;68.90;;;;;;5040916;28;20025;-75
2023/12/14 02:58:22;;;;;;;3.80;1.80;;;39.40;69.10;;;;;;5036439;28;20025;-75
2023/12/14 03:00:49;;;;;;;3.33;1.40;;;39.50;66.80;;;;;;5041244;28;20040;-64
2023/12/14 03:03:16;;;;;;;3.45;1.30;;;39.70;67.20;;;;;;5033936;28;20037;-68
2023/12/14 03:05:43;;;;;;;4.20;1.40;;;39.50;67.60;;;;;;5036065;28;20021;-73
2023/12/14 03:08:10;;;;;;;3.65;1.30;;;39.70;68.00;;;;;;5032533;28;20033;-64
2023/12/14 03:10:37;;;;;;;2.53;1.40;;;40.20;68.20;;;;;;5040829;28;20189;-67
2023/12/14 03:13:04;;;;;;;2.80;1.35;;;40.30;66.20;;;;;;5040401;28;20059;-68
2023/12/14 03:15:32;;;;;;;3.92;1.17;;;40.10;67.20;;;;;;5040271;28;20021;-68
2023/12/14 03:17:59;;;;;;;2.95;1.23;;;40.50;67.50;;;;;;5039613;28;20132;-74
2023/12/14 03:20:26;;;;;;;2.45;1.33;;;40.60;67.70;;;;;;5038970;28;20483;-65
2023/12/14 03:22:53;;;;;;;1.48;1.17;;;40.50;67.10;;;;;;5036020;28;20025;-68
2023/12/14 03:25:20;;;;;;;2.75;1.20;;;40.60;66.10;;;;;;5040742;28;20079;-73
2023/12/14 03:27:47;;;;;;;3.28;1.05;;;40.40;66.90;;;;;;5037564;28;20040;-69
2023/12/14 03:30:14;;;;;;;3.22;1.40;;;39.90;66.00;;;;;;5044191;28;20018;-68
2023/12/14 03:32:42;;;;;;;2.47;1.50;;;40.20;66.30;;;;;;5032906;28;20025;-68
2023/12/14 03:35:09;;;;;;;2.25;1.25;;;40.20;67.20;;;;;;5033598;28;20048;-67
2023/12/14 03:37:36;;;;;;;2.83;1.02;;;39.90;66.10;;;;;;5034539;28;20017;-65
2023/12/14 03:40:03;;;;;;;2.60;1.52;;;39.30;65.80;;;;;;5035187;28;20028;-68
2023/12/14 03:42:31;;;;;;;2.13;1.10;;;39.60;65.90;;;;;;5034940;28;20036;-68
2023/12/14 03:44:58;;;;;;;3.75;1.30;;;40.00;66.10;;;;;;5029608;28;20112;-67
2023/12/14 03:47:25;;;;;;;2.65;1.05;;;40.40;64.60;;;;;;5039372;28;20033;-66
2023/12/14 03:49:52;;;;;;;1.27;0.90;;;40.50;65.40;;;;;;5034042;28;20041;-66
2023/12/14 03:52:19;;;;;;;5.07;1.42;;;40.80;62.70;;;;;;5038166;28;20025;-74
2023/12/14 03:54:46;;;;;;;3.58;1.63;;;40.30;63.60;;;;;;5039571;28;20025;-64
2023/12/14 03:57:13;;;;;;;3.97;1.30;;;39.70;63.10;;;;;;5040378;28;20032;-67
2023/12/14 03:59:41;;;;;;;2.92;1.17;;;39.50;63.90;;;;;;5039528;28;20028;-74
2023/12/14 04:02:08;;;;;;;5.22;1.67;;;39.70;63.90;;;;;;5038684;28;20021;-66
2023/12/14 04:04:35;;;;;;;11.27;2.00;;;40.20;64.40;;;;;;5040567;28;20041;-73
2023/12/14 04:07:02;;;;;;;4.13;1.23;;;40.00;64.10;;;;;;5040912;28;20036;-67
2023/12/14 04:09:29;;;;;;;8.30;1.70;;;39.90;64.30;;;;;;5039857;28;20079;-67
2023/12/14 04:11:56;;;;;;;2.63;1.27;;;39.90;63.80;;;;;;5042212;28;20025;-67
2023/12/14 04:14:23;;;;;;;3.88;1.30;;;39.80;63.80;;;;;;5040146;28;20017;-66
2023/12/14 04:16:50;;;;;;;3.35;1.38;;;39.90;63.60;;;;;;5040396;28;20574;-64
2023/12/14 04:19:17;;;;;;;3.15;1.65;;;39.80;64.50;;;;;;5038326;28;20043;-68
2023/12/14 04:21:45;;;;;;;7.18;1.98;;;40.20;65.10;;;;;;5039464;28;20029;-67
2023/12/14 04:24:12;;;;;;;5.03;1.30;;;40.80;63.90;;;;;;5041139;28;20025;-65
2023/12/14 04:26:39;;;;;;;5.72;1.92;;;40.80;63.50;;;;;;5037755;28;20024;-65
2023/12/14 04:29:07;;;;;;;5.28;1.48;;;41.00;62.30;;;;;;5036061;28;20052;-68
2023/12/14 04:31:35;;;;;;;2.92;1.48;;;40.60;64.00;;;;;;5038902;28;20807;-64
2023/12/14 04:34:02;;;;;;;1.63;1.10;;;39.90;62.60;;;;;;5033916;28;20518;-75
2023/12/14 04:36:30;;;;;;;5.72;2.20;;;39.10;63.60;;;;;;5042460;28;20081;-66
2023/12/14 04:38:57;;;;;;;5.40;1.70;;;38.40;63.70;;;;;;5042316;28;20029;-66
2023/12/14 04:41:24;;;;;;;4.30;1.15;;;38.60;63.90;;;;;;5037843;28;20049;-66
2023/12/14 04:43:51;;;;;;;2.15;1.25;;;38.90;63.30;;;;;;5037170;28;20028;-75
2023/12/14 04:46:18;;;;;;;3.40;1.35;;;39.40;63.50;;;;;;5041167;28;20056;-66
2023/12/14 04:48:46;;;;;;;1.92;1.05;;;39.50;63.30;;;;;;5038437;28;20578;-66
2023/12/14 04:51:13;;;;;;;1.67;0.95;;;39.60;62.90;;;;;;5037071;28;20274;-67
2023/12/14 04:53:41;;;;;;;5.53;1.85;;;39.70;62.90;;;;;;5035416;28;20036;-66
2023/12/14 04:56:12;;;;;;;6.32;1.25;;;40.00;62.50;;;;;;5038876;28;20100;-63
2023/12/14 04:58:39;;;;;;;;;;;39.70;62.10;;;;;;5043137;28;20032;-74
2023/12/14 05:01:07;;;;;;;3.67;1.40;;;39.70;61.80;;;;;;5041238;28;19952;-71
2023/12/14 05:03:35;;;;;;;2.20;1.08;;;39.70;61.70;;;;;;5036572;28;20495;-73
2023/12/14 05:06:03;;;;;;;2.90;1.08;;;39.60;61.10;;;;;;5036728;28;20361;-64
2023/12/14 05:08:30;;;;;;;3.15;1.00;;;39.90;61.60;;;;;;5038570;28;20033;-62
2023/12/14 05:10:58;;;;;;;2.38;1.05;;;40.10;61.80;;;;;;5040194;28;20029;-74
2023/12/14 05:13:25;;;;;;;2.28;1.10;;;40.20;62.30;;;;;;5040653;28;20036;-65
2023/12/14 05:15:52;;;;;;;4.10;1.33;;;40.10;61.20;;;;;;5041705;28;20028;-63
2023/12/14 05:18:20;;;;;;;8.90;2.10;;;40.10;60.10;;;;;;5039486;28;20021;-63
2023/12/14 05:20:47;;;;;;;6.45;1.75;;;40.20;60.70;;;;;;5035899;28;20056;-73
2023/12/14 05:23:14;;;;;;;2.13;1.30;;;40.10;60.10;;;;;;5039638;28;20491;-66
2023/12/14 05:25:41;;;;;;;1.58;1.05;;;39.80;60.40;;;;;;5038188;28;20027;-74
2023/12/14 05:28:09;;;;;;;3.80;1.30;;;39.90;61.00;;;;;;5038515;28;20033;-72
2023/12/14 05:30:36;;;;;;;3.70;1.23;;;40.30;60.50;;;;;;5035577;28;20032;-70
2023/12/14 05:33:03;;;;;;;2.45;1.20;;;40.30;61.10;;;;;;5034981;28;20052;-63
2023/12/14 05:35:30;;;;;;;3.47;1.38;;;39.70;61.00;;;;;;5038515;28;20032;-66
2023/12/14 05:37:58;;;;;;;1.77;1.10;;;39.50;60.80;;;;;;5037163;28;20032;-72
2023/12/14 05:40:25;;;;;;;2.97;1.42;;;39.70;61.10;;;;;;5038767;28;20017;-68
2023/12/14 05:42:52;;;;;;;3.13;1.55;;;40.00;61.00;;;;;;5037142;28;20040;-74
2023/12/14 05:45:19;;;;;;;1.17;0.90;;;39.70;61.50;;;;;;5036283;28;20025;-67
2023/12/14 05:47:46;;;;;;;3.17;1.20;;;39.90;60.90;;;;;;5040184;28;20293;-74
2023/12/14 05:50:13;;;;;;;1.70;1.13;;;40.00;61.10;;;;;;5037061;28;20029;-64
2023/12/14 05:52:41;;;;;;;2.72;1.10;;;39.80;61.60;;;;;;5039731;28;20264;-67
2023/12/14 05:55:11;;;;;;;4.32;1.30;;;40.10;62.10;;;;;;5037728;28;20355;-66
2023/12/14 05:57:38;;;;;;;1.83;1.10;;;40.30;61.40;;;;;;5040088;28;20088;-74
2023/12/14 06:00:07;;;;;;;2.35;1.02;;;40.30;61.60;;;;;;5037554;28;20557;-63
2023/12/14 06:02:36;;;;;;;1.90;1.35;;;40.10;61.10;;;;;;5039639;28;20043;-75
2023/12/14 06:05:03;;;;;;;3.55;1.23;;;39.50;61.40;;;;;;5037358;28;20069;-75
2023/12/14 06:07:30;;;;;;;4.05;1.23;;;39.90;61.50;;;;;;5041539;28;20033;-67
2023/12/14 06:09:57;;;;;;;3.92;1.30;;;40.20;61.60;;;;;;5037743;28;20025;-76
2023/12/14 06:12:25;;;;;;;1.80;1.42;;;40.00;61.30;;;;;;5037418;28;20108;-75
2023/12/14 06:14:52;;;;;;;2.50;1.63;;;40.10;61.90;;;;;;5038190;28;20706;-64
2023/12/14 06:17:19;;;;;;;1.92;1.70;;;40.60;61.70;;;;;;5036629;28;20060;-75
2023/12/14 06:19:46;;;;;;;2.80;1.27;;;40.80;61.60;;;;;;5036571;28;20033;-68
2023/12/14 06:22:13;;;;;;;2.45;0.98;;;40.80;61.90;;;;;;5034732;28;20428;-66
2023/12/14 06:24:40;;;;;;;4.00;1.35;;;40.40;62.30;;;;;;5036409;28;20033;-68
2023/12/14 06:27:08;;;;;;;3.47;1.38;;;40.30;62.30;;;;;;5036576;28;20021;-68
2023/12/14 06:29:35;;;;;;;1.10;1.00;;;40.60;62.10;;;;;;5036969;28;20462;-63
2023/12/14 06:32:02;;;;;;;1.40;1.20;;;40.10;62.40;;;;;;5036402;28;20114;-74
2023/12/14 06:34:29;;;;;;;3.28;1.20;;;40.40;62.50;;;;;;5036355;28;20029;-67
2023/12/14 06:36:59;;;;;;;2.08;1.00;;;41.10;62.50;;;;;;5038431;28;20609;-63
2023/12/14 06:39:26;;;;;;;3.40;1.25;;;41.90;62.90;;;;;;5036954;28;20039;-74
2023/12/14 06:41:54;;;;;;;2.53;1.40;;;42.30;62.00;;;;;;5036910;28;20342;-76
2023/12/14 06:44:21;;;;;;;1.63;1.10;;;42.10;61.50;;;;;;5035707;28;20415;-65
2023/12/14 06:46:48;;;;;;;2.15;1.25;;;41.40;61.60;;;;;;5033623;28;20029;-65
2023/12/14 06:49:16;;;;;;;3.20;1.10;;;41.60;61.70;;;;;;5037386;28;20033;-65
2023/12/14 06:51:43;;;;;;;3.50;1.38;;;41.90;61.40;;;;;;5035720;28;20495;-66
2023/12/14 06:54:10;;;;;;;4.43;1.65;;;42.40;61.30;;;;;;5037744;28;20029;-63
2023/12/14 06:56:37;;;;;;;2.25;1.00;;;42.70;61.00;;;;;;5036995;28;20113;-67
2023/12/14 06:59:05;;;;;;;2.10;1.20;;;42.90;61.60;;;;;;5036789;28;20106;-64
2023/12/14 07:01:32;;;;;;;2.92;1.23;;;42.90;60.80;;;;;;5034701;28;20033;-75
2023/12/14 07:03:59;;;;;;;3.28;1.30;;;42.40;60.30;;;;;;5041804;28;20027;-66
2023/12/14 07:06:26;;;;;;;2.90;1.30;;;41.30;60.50;;;;;;5040815;28;20021;-76
2023/12/14 07:08:53;;;;;;;2.85;1.33;;;41.30;60.80;;;;;;5037831;28;20471;-66
2023/12/14 07:11:20;;;;;;;1.58;1.08;;;41.90;61.20;;;;;;5037370;28;20064;-65
2023/12/14 07:13:50;;;;;;;3.47;1.30;;;42.40;60.70;;;;;;5039550;28;20030;-75
2023/12/14 07:16:17;;;;;;;2.15;1.40;;;42.30;60.40;;;;;;5036891;28;20535;-66
2023/12/14 07:18:44;;;;;;;2.67;1.25;;;41.50;60.50;;;;;;5038513;28;20052;-76
2023/12/14 07:21:12;;;;;;;3.95;1.50;;;40.70;61.60;;;;;;5038312;28;20025;-66
2023/12/14 07:23:42;;;;;;;14.57;1.65;;;40.50;61.60;;;;;;5035671;28;20027;-66
2023/12/14 07:26:09;;;;;;;7.40;1.90;;;40.00;61.90;;;;;;5035921;28;20403;-69
2023/12/14 07:28:36;;;;;;;5.13;1.48;;;39.80;61.90;;;;;;5038634;28;20814;-69
2023/12/14 07:31:06;;;;;;;3.13;1.35;;;39.60;62.20;;;;;;5036637;28;20910;-68
2023/12/14 07:33:33;;;;;;;5.50;1.40;;;39.60;62.30;;;;;;5037271;28;20045;-68
2023/12/14 07:36:00;;;;;;;18.60;3.58;;;39.90;61.80;;;;;;5039747;28;20167;-66
2023/12/14 07:38:27;;;;;;;11.57;4.72;;;39.50;62.10;;;;;;5043436;28;20121;-77
2023/12/14 07:40:54;;;;;;;10.60;2.00;;;39.50;62.40;;;;;;5039838;28;20029;-66
2023/12/14 07:43:22;;;;;;;9.73;2.53;;;39.50;62.50;;;;;;5039435;28;20037;-69
2023/12/14 07:45:49;;;;;;;10.52;1.88;;;39.50;62.80;;;;;;5043616;28;20025;-75
2023/12/14 07:48:17;;;;;;;5.88;1.40;;;39.80;62.80;;;;;;5041460;28;20025;-66
2023/12/14 07:50:44;;;;;;;10.50;1.90;;;39.50;62.30;;;;;;5039801;28;20271;-75
2023/12/14 07:53:11;;;;;;;8.88;1.67;;;39.70;62.40;;;;;;5038384;28;20411;-67
2023/12/14 07:55:38;;;;;;;5.88;1.40;;;39.60;62.30;;;;;;5037866;28;20029;-66
2023/12/14 07:58:05;;;;;;;16.27;2.50;;;39.30;63.10;;;;;;5040710;28;20391;-66
2023/12/14 08:00:32;;;;;;;5.95;1.70;;;39.50;62.70;;;;;;5037411;28;20032;-68
2023/12/14 08:03:00;;;;;;;2.70;1.00;;;39.50;62.50;;;;;;5038837;28;20063;-68
2023/12/14 08:05:27;;;;;;;3.45;0.98;;;39.30;63.20;;;;;;5038392;28;20052;-75
2023/12/14 08:07:54;;;;;;;3.53;1.00;;;39.10;63.00;;;;;;5035415;28;20132;-65
2023/12/14 08:10:21;;;;;;;5.00;1.20;;;38.50;63.50;;;;;;5037743;28;20033;-66
2023/12/14 08:12:49;;;;;;;2.63;1.38;;;38.30;63.60;;;;;;5034877;28;20519;-67
2023/12/14 08:15:16;;;;;;;6.32;1.35;;;38.40;63.40;;;;;;5036955;28;20021;-65
2023/12/14 08:17:43;;;;;;;10.20;1.65;;;38.40;63.70;;;;;;5036751;28;20305;-65
2023/12/14 08:20:12;;;;;;;9.02;1.80;;;38.10;62.70;;;;;;5036931;28;20021;-68
2023/12/14 08:22:44;;;;;;;5.13;1.20;;;37.40;63.50;;;;;;5038119;28;20083;-69
2023/12/14 08:25:15;;;;;;;4.75;1.10;;;36.50;64.00;;;;;;5037767;28;20033;-66
2023/12/14 08:27:43;;;;;;;2.65;0.90;;;36.20;64.70;;;;;;5036494;28;20558;-67
2023/12/14 08:30:11;;;;;;;3.50;1.23;;;36.00;64.90;;;;;;5032031;28;20040;-65
2023/12/14 08:32:39;;;;;;;12.23;1.70;;;35.70;64.60;;;;;;5032077;28;20067;-66
2023/12/14 08:35:06;;;;;;;14.65;2.03;;;35.60;64.60;;;;;;5034057;28;20025;-65
2023/12/14 08:37:33;;;;;;;5.03;1.38;;;35.30;65.40;;;;;;5036819;28;20025;-77
2023/12/14 08:40:00;;;;;;;2.80;1.10;;;35.00;65.20;;;;;;5037511;28;20021;-68
2023/12/14 08:42:27;;;;;;;7.60;1.10;;;34.60;65.50;;;;;;5035681;28;20047;-69
2023/12/14 08:44:54;;;;;;;4.25;1.00;;;34.40;65.70;;;;;;5034922;28;20037;-67
2023/12/14 08:47:21;;;;;;;2.03;0.80;;;34.20;66.00;;;;;;5034414;28;20470;-66
2023/12/14 08:49:49;;;;;;;4.65;1.05;;;34.00;66.20;;;;;;5036515;28;20407;-65
2023/12/14 08:52:16;;;;;;;2.03;0.93;;;33.80;66.10;;;;;;5035381;28;20473;-67
2023/12/14 08:54:44;;;;;;;2.75;0.82;;;33.60;66.50;;;;;;5034172;28;20402;-67
2023/12/14 08:57:11;;;;;;;3.25;0.98;;;33.50;66.30;;;;;;5033911;28;20465;-68
2023/12/14 08:59:38;;;;;;;2.50;0.65;;;33.40;66.30;;;;;;5035061;28;20029;-66
2023/12/14 09:02:06;;;;;;;2.05;0.88;;;33.40;66.90;;;;;;5036218;28;20113;-68
2023/12/14 09:04:35;;;;;;;0.75;0.50;;;33.20;66.60;;;;;;5037609;28;20495;-74
2023/12/14 09:07:03;;;;;;;0.73;0.65;;;33.20;67.00;;;;;;5034076;28;20024;-75
2023/12/14 09:09:32;;;;;;;1.17;0.80;;;33.10;67.00;;;;;;5034665;28;20025;-75
2023/12/14 09:11:59;;;;;;;3.03;0.88;;;33.00;67.50;;;;;;5031030;28;20483;-68
2023/12/14 09:14:26;;;;;;;2.50;1.13;;;32.80;67.70;;;;;;5034393;28;20288;-67
2023/12/14 09:16:53;;;;;;;1.10;0.63;;;32.70;67.80;;;;;;5034328;28;20025;-65
2023/12/14 09:19:21;;;;;;;4.43;0.70;;;32.70;67.80;;;;;;5033805;28;20025;-66
2023/12/14 09:21:57;;;;;;;2.35;0.85;;;32.50;68.20;;;;;;5037045;28;20043;-72
2023/12/14 09:24:24;;;;;;;1.98;1.00;;;32.50;68.80;;;;;;5034361;28;20029;-68
2023/12/14 09:26:51;;;;;;;5.57;1.55;;;32.40;68.40;;;;;;5035986;28;20067;-66
2023/12/14 09:29:18;;;;;;;4.80;1.00;;;32.30;68.50;;;;;;5034294;28;20147;-65
2023/12/14 09:31:47;;;;;;;7.68;1.38;;;32.30;68.90;;;;;;5028343;28;20017;-74
2023/12/14 09:34:14;;;;;;;15.80;2.35;;;32.20;69.10;;;;;;5066212;22;20049;-67
2023/12/14 09:36:41;;;;;;;10.57;1.48;;;32.10;69.00;;;;;;5034789;28;20067;-65
2023/12/14 09:39:11;;;;;;;16.48;2.20;;;32.00;69.30;;;;;;5035393;28;20052;-74
2023/12/14 09:41:39;;;;;;;19.70;2.75;;;31.90;69.40;;;;;;5033967;28;20025;-63
2023/12/14 09:44:07;;;;;;;17.58;2.20;;;31.80;69.70;;;;;;5034764;28;20032;-68
2023/12/14 09:46:38;;;;;;;11.75;1.73;;;31.80;69.60;;;;;;5033729;28;20040;-66
2023/12/14 09:49:06;;;;;;;11.40;2.38;;;31.50;69.90;;;;;;5032274;28;20441;-75
2023/12/14 09:51:36;;;;;;;10.30;2.25;;;31.50;70.40;;;;;;5035178;28;20062;-73
2023/12/14 09:54:06;;;;;;;7.10;1.42;;;31.40;70.60;;;;;;5035615;28;20028;-72
2023/12/14 09:56:33;;;;;;;8.13;1.30;;;31.20;70.60;;;;;;5035333;28;20025;-67
2023/12/14 09:59:02;;;;;;;10.63;1.50;;;31.10;71.10;;;;;;5032806;28;20368;-74
2023/12/14 10:01:29;;;;;;;8.63;1.30;;;31.10;71.00;;;;;;5032805;28;20033;-68
2023/12/14 10:04:11;;;;;;;7.10;1.15;;;31.10;71.20;;;;;;5030166;28;20848;-69
2023/12/14 10:06:39;;;;;;;2.63;1.00;;;31.00;71.20;;;;;;5033966;28;20460;-65
2023/12/14 10:09:11;;;;;;;5.47;0.90;;;30.90;71.80;;;;;;5032702;28;20036;-69
2023/12/14 10:11:43;;;;;;;3.28;0.68;;;30.80;71.50;;;;;;5033361;28;20040;-65
2023/12/14 10:14:27;;;;;;;2.33;0.70;;;30.80;71.50;;;;;;5028136;28;20598;-68
2023/12/14 10:16:55;;;;;;;1.45;0.50;;;30.70;71.70;;;;;;5035592;28;20519;-69
2023/12/14 10:19:22;;;;;;;1.67;0.77;;;30.60;71.90;;;;;;5031695;28;20041;-65
2023/12/14 10:21:50;;;;;;;0.50;0.43;;;30.40;72.00;;;;;;5034661;28;20024;-68
2023/12/14 10:24:19;;;;;;;1.38;0.57;;;30.30;72.40;;;;;;5035374;28;20029;-75
2023/12/14 10:26:47;;;;;;;2.33;0.65;;;30.30;72.40;;;;;;5031423;28;20059;-69
2023/12/14 10:29:15;;;;;;;0.90;0.60;;;30.00;72.80;;;;;;5033460;28;20021;-68
2023/12/14 10:31:43;;;;;;;1.92;0.73;;;30.00;73.00;;;;;;5032304;28;20044;-68
2023/12/14 10:34:12;;;;;;;1.83;0.60;;;29.80;73.20;;;;;;5030780;28;20055;-69
2023/12/14 10:36:40;;;;;;;4.80;1.00;;;29.80;73.40;;;;;;5033243;28;20028;-68
2023/12/14 10:39:13;;;;;;;1.05;0.50;;;29.50;74.00;;;;;;5030502;28;20471;-69
2023/12/14 10:41:40;;;;;;;1.00;0.70;;;29.40;74.30;;;;;;5030076;28;20916;-75
2023/12/14 10:44:08;;;;;;;3.83;0.80;;;29.50;74.10;;;;;;5030038;28;20554;-75
2023/12/14 10:46:36;;;;;;;1.88;0.77;;;29.60;74.50;;;;;;5027491;28;20055;-66
2023/12/14 10:49:03;;;;;;;0.75;0.55;;;29.40;74.50;;;;;;5030308;28;20028;-70
2023/12/14 10:51:31;;;;;;;2.75;0.93;;;29.30;74.70;;;;;;5033389;28;20037;-75
2023/12/14 10:53:59;;;;;;;5.95;1.13;;;29.20;74.90;;;;;;5030680;28;20025;-66
2023/12/14 10:56:26;;;;;;;17.10;4.97;;;29.20;76.30;;;;;;5029040;28;20049;-68
2023/12/14 10:58:57;;;;;;;18.85;5.20;;;29.00;90.60;;;;;;5038014;28;20033;-69
2023/12/14 11:01:25;;;;;;;18.42;6.15;;;28.30;93.20;;;;;;5035993;28;20238;-65
2023/12/14 11:03:56;;;;;;;18.38;5.72;;;27.50;96.10;;;;;;5034100;28;20040;-67
2023/12/14 11:06:31;;;;;;;21.00;6.67;;;27.00;98.80;;;;;;5034247;28;20594;-65
2023/12/14 11:09:08;;;;;;;14.25;4.65;;;26.60;99.90;;;;;;5040846;28;20078;-75
2023/12/14 11:12:08;;;;;;;20.50;6.05;;;26.20;99.90;;;;;;5036494;28;20025;-68
2023/12/14 11:14:36;;;;;;;17.42;5.47;;;25.90;99.90;;;;;;4956353;28;20043;-67
2023/12/14 11:17:12;;;;;;;23.83;5.68;;;25.70;99.90;;;;;;4957493;28;20035;-69
2023/12/14 11:19:39;;;;;;;19.02;6.05;;;25.60;99.90;;;;;;4951779;28;20097;-67
2023/12/14 11:22:06;;;;;;;25.48;5.63;;;25.40;99.90;;;;;;4963620;28;20117;-72
2023/12/14 11:24:36;;;;;;;19.70;5.18;;;25.20;99.90;;;;;;4959136;28;20075;-66
2023/12/14 11:27:10;;;;;;;16.02;5.53;;;25.00;99.90;;;;;;4958440;28;20111;-68
2023/12/14 11:29:38;;;;;;;19.85;5.50;;;24.90;99.90;;;;;;4963078;28;20178;-71
2023/12/14 11:32:07;;;;;;;19.02;5.45;;;24.80;99.90;;;;;;4962565;28;20490;-71
2023/12/14 11:34:34;;;;;;;17.92;5.22;;;24.70;99.90;;;;;;4969466;28;20096;-68
2023/12/14 11:37:01;;;;;;;16.38;5.25;;;24.50;99.90;;;;;;4960818;28;20030;-71
2023/12/14 11:39:31;;;;;;;26.15;6.80;;;24.20;99.90;;;;;;4964702;28;20489;-67
2023/12/14 11:42:10;;;;;;;19.05;6.07;;;24.00;99.90;;;;;;4955509;28;20069;-66
2023/12/14 11:44:38;;;;;;;27.23;5.72;;;23.80;99.90;;;;;;4960444;28;20037;-66
2023/12/14 11:47:06;;;;;;;18.60;5.15;;;23.60;99.90;;;;;;4957968;28;20646;-71
2023/12/14 11:49:33;;;;;;;20.92;4.75;;;23.50;99.90;;;;;;4956692;28;20094;-67
2023/12/14 11:52:04;;;;;;;20.90;5.05;;;23.50;99.90;;;;;;5032772;28;20471;-67
2023/12/14 11:54:31;;;;;;;23.58;5.70;;;23.40;99.90;;;;;;5038424;28;20522;-67
2023/12/14 11:57:02;;;;;;;27.48;5.80;;;23.30;99.90;;;;;;5044452;28;20036;-69
2023/12/14 11:59:31;;;;;;;19.45;5.63;;;23.20;99.90;;;;;;5040235;28;20407;-69
2023/12/14 12:02:00;;;;;;;24.35;6.00;;;23.10;99.90;;;;;;5042322;28;20032;-65
2023/12/14 12:04:27;;;;;;;20.35;5.35;;;23.00;99.90;;;;;;5036078;28;20102;-70
2023/12/14 12:07:08;;;;;;;18.45;5.30;;;23.00;99.90;;;;;;5042810;28;20029;-68
2023/12/14 12:09:41;;;;;;;21.85;5.10;;;22.90;99.90;;;;;;5038600;28;20466;-69
2023/12/14 12:12:14;;;;;;;;;;;22.80;99.90;;;;;;5037611;28;20352;-70
2023/12/14 12:14:41;;;;;;;;;;;22.80;99.90;;;;;;5038833;28;19974;-67
2023/12/14 12:17:09;;;;;;;22.80;5.60;;;22.70;99.90;;;;;;5042872;28;19936;-69
2023/12/14 12:19:38;;;;;;;23.75;5.40;;;22.70;99.90;;;;;;5037809;28;20033;-69
2023/12/14 12:22:05;;;;;;;25.05;5.68;;;22.60;99.90;;;;;;5036897;28;20028;-70
2023/12/14 12:24:32;;;;;;;18.33;5.22;;;22.50;99.90;;;;;;5039355;28;20021;-66
2023/12/14 12:26:59;;;;;;;18.77;5.25;;;22.50;99.90;;;;;;5040381;28;20109;-70
2023/12/14 12:29:27;;;;;;;21.48;5.78;;;22.50;99.90;;;;;;5040998;28;20025;-67
2023/12/14 12:31:54;;;;;;;22.83;5.63;;;22.40;99.90;;;;;;5037628;28;20067;-66
2023/12/14 12:34:21;;;;;;;21.30;5.57;;;22.40;99.90;;;;;;5036063;28;20131;-69
2023/12/14 12:36:48;;;;;;;24.40;5.80;;;22.40;99.90;;;;;;5036333;28;20017;-67
2023/12/14 12:39:15;;;;;;;19.75;5.65;;;22.40;99.90;;;;;;5037310;28;20122;-68
2023/12/14 12:41:42;;;;;;;24.52;4.78;;;22.30;99.90;;;;;;5040910;28;20021;-67
2023/12/14 12:44:10;;;;;;;23.50;5.15;;;22.30;99.90;;;;;;5033945;28;20084;-69
2023/12/14 12:46:37;;;;;;;20.05;5.15;;;22.20;99.90;;;;;;5038838;28;20022;-69
2023/12/14 12:49:05;;;;;;;26.48;6.57;;;22.20;99.90;;;;;;5040396;28;20047;-66